sensor_id;sensor_type;location;lat;lon;timestamp;pressure;altitude;pressure_sealevel;temperature;humidity
10167;BME280;62970;53.130;8.244;2023-04-21T00:00:20;101941.66;;;6.65;63.87
10167;BME280;62970;53.130;8.244;2023-04-21T00:02:49;101939.06;;;6.65;63.92
10167;BME280;62970;53.130;8.244;2023-04-21T00:05:18;101932.16;;;6.65;63.57
10167;BME280;62970;53.130;8.244;2023-04-21T00:07:47;101932.13;;;6.64;63.59
10167;BME280;62970;53.130;8.244;2023-04-21T00:10:17;101932.13;;;6.62;63.98
10167;BME280;62970;53.130;8.244;2023-04-21T00:12:46;101932.97;;;6.61;63.83
10167;BME280;62970;53.130;8.244;2023-04-21T00:15:18;101931.22;;;6.60;64.04
10167;BME280;62970;53.130;8.244;2023-04-21T00:17:47;101926.91;;;6.59;64.08
10167;BME280;62970;53.130;8.244;2023-04-21T00:20:17;101930.34;;;6.58;63.91
10167;BME280;62970;53.130;8.244;2023-04-21T00:22:46;101926.88;;;6.56;64.04
10167;BME280;62970;53.130;8.244;2023-04-21T00:25:16;101920.78;;;6.54;64.06
10167;BME280;62970;53.130;8.244;2023-04-21T00:27:45;101927.69;;;6.52;63.88
10167;BME280;62970;53.130;8.244;2023-04-21T00:30:17;101919.03;;;6.50;64.02
10167;BME280;62970;53.130;8.244;2023-04-21T00:32:46;101910.34;;;6.47;63.90
10167;BME280;62970;53.130;8.244;2023-04-21T00:35:16;101907.75;;;6.45;64.01
10167;BME280;62970;53.130;8.244;2023-04-21T00:37:45;101906.00;;;6.44;63.73
10167;BME280;62970;53.130;8.244;2023-04-21T00:40:15;101910.28;;;6.42;64.01
10167;BME280;62970;53.130;8.244;2023-04-21T00:42:44;101907.69;;;6.42;64.02
10167;BME280;62970;53.130;8.244;2023-04-21T00:45:13;101904.25;;;6.42;64.25
10167;BME280;62970;53.130;8.244;2023-04-21T00:47:45;101903.38;;;6.41;64.17
10167;BME280;62970;53.130;8.244;2023-04-21T00:50:15;101899.03;;;6.40;63.81
10167;BME280;62970;53.130;8.244;2023-04-21T00:52:44;101898.16;;;6.40;64.26
10167;BME280;62970;53.130;8.244;2023-04-21T00:55:14;101900.75;;;6.40;64.00
10167;BME280;62970;53.130;8.244;2023-04-21T00:57:44;101900.75;;;6.40;64.31
10167;BME280;62970;53.130;8.244;2023-04-21T01:00:15;101894.72;;;6.41;64.21
10167;BME280;62970;53.130;8.244;2023-04-21T01:02:48;101891.28;;;6.42;63.90
10167;BME280;62970;53.130;8.244;2023-04-21T01:05:19;101891.31;;;6.45;64.12
10167;BME280;62970;53.130;8.244;2023-04-21T01:07:48;101882.72;;;6.49;64.23
10167;BME280;62970;53.130;8.244;2023-04-21T01:10:18;101880.19;;;6.53;64.28
10167;BME280;62970;53.130;8.244;2023-04-21T01:12:47;101883.66;;;6.55;64.11
10167;BME280;62970;53.130;8.244;2023-04-21T01:15:16;101881.94;;;6.56;63.81
10167;BME280;62970;53.130;8.244;2023-04-21T01:17:48;101883.66;;;6.55;64.19
10167;BME280;62970;53.130;8.244;2023-04-21T01:20:19;101881.91;;;6.53;63.68
10167;BME280;62970;53.130;8.244;2023-04-21T01:22:51;101876.69;;;6.50;64.22
10167;BME280;62970;53.130;8.244;2023-04-21T01:25:20;101874.97;;;6.50;64.18
10167;BME280;62970;53.130;8.244;2023-04-21T01:27:53;101879.28;;;6.48;64.06
10167;BME280;62970;53.130;8.244;2023-04-21T01:30:22;101874.06;;;6.45;64.30
10167;BME280;62970;53.130;8.244;2023-04-21T01:32:52;101873.16;;;6.43;63.88
10167;BME280;62970;53.130;8.244;2023-04-21T01:35:23;101869.69;;;6.41;64.35
10167;BME280;62970;53.130;8.244;2023-04-21T01:37:55;101869.69;;;6.40;64.29
10167;BME280;62970;53.130;8.244;2023-04-21T01:40:25;101866.22;;;6.39;64.45
10167;BME280;62970;53.130;8.244;2023-04-21T01:42:54;101862.75;;;6.37;64.44
10167;BME280;62970;53.130;8.244;2023-04-21T01:45:24;101866.16;;;6.34;64.11
10167;BME280;62970;53.130;8.244;2023-04-21T01:47:56;101862.69;;;6.34;64.27
10167;BME280;62970;53.130;8.244;2023-04-21T01:50:25;101864.41;;;6.32;64.14
10167;BME280;62970;53.130;8.244;2023-04-21T01:52:57;101858.34;;;6.30;64.41
10167;BME280;62970;53.130;8.244;2023-04-21T01:55:26;101860.06;;;6.29;64.57
10167;BME280;62970;53.130;8.244;2023-04-21T01:57:56;101863.50;;;6.28;64.06
10167;BME280;62970;53.130;8.244;2023-04-21T02:00:26;101860.03;;;6.26;64.17
10167;BME280;62970;53.130;8.244;2023-04-21T02:02:55;101866.06;;;6.25;64.56
10167;BME280;62970;53.130;8.244;2023-04-21T02:05:24;101858.28;;;6.24;64.32
10167;BME280;62970;53.130;8.244;2023-04-21T02:07:57;101859.97;;;6.22;64.12
10167;BME280;62970;53.130;8.244;2023-04-21T02:10:26;101851.34;;;6.21;64.61
10167;BME280;62970;53.130;8.244;2023-04-21T02:12:56;101852.19;;;6.20;64.66
10167;BME280;62970;53.130;8.244;2023-04-21T02:15:26;101856.47;;;6.18;64.25
10167;BME280;62970;53.130;8.244;2023-04-21T02:17:55;101856.47;;;6.17;64.58
10167;BME280;62970;53.130;8.244;2023-04-21T02:20:24;101853.00;;;6.15;64.22
10167;BME280;62970;53.130;8.244;2023-04-21T02:22:54;101849.50;;;6.13;64.73
10167;BME280;62970;53.130;8.244;2023-04-21T02:25:25;101843.44;;;6.09;64.63
10167;BME280;62970;53.130;8.244;2023-04-21T02:27:55;101858.09;;;6.09;64.65
10167;BME280;62970;53.130;8.244;2023-04-21T02:30:24;101852.03;;;6.07;64.36
10167;BME280;62970;53.130;8.244;2023-04-21T02:32:54;101852.88;;;6.06;64.69
10167;BME280;62970;53.130;8.244;2023-04-21T02:35:23;101852.00;;;6.03;64.62
10167;BME280;62970;53.130;8.244;2023-04-21T02:37:52;101846.78;;;6.00;64.36
10167;BME280;62970;53.130;8.244;2023-04-21T02:40:24;101845.06;;;6.01;64.60
10167;BME280;62970;53.130;8.244;2023-04-21T02:42:53;101845.03;;;5.99;64.72
10167;BME280;62970;53.130;8.244;2023-04-21T02:45:22;101851.91;;;5.97;64.58
10167;BME280;62970;53.130;8.244;2023-04-21T02:47:52;101851.91;;;5.96;64.53
10167;BME280;62970;53.130;8.244;2023-04-21T02:50:21;101846.72;;;5.96;64.72
10167;BME280;62970;53.130;8.244;2023-04-21T02:52:51;101845.84;;;5.95;64.82
10167;BME280;62970;53.130;8.244;2023-04-21T02:55:21;101847.56;;;5.93;64.91
10167;BME280;62970;53.130;8.244;2023-04-21T02:57:53;101840.63;;;5.92;64.76
10167;BME280;62970;53.130;8.244;2023-04-21T03:00:24;101844.94;;;5.92;64.91
10167;BME280;62970;53.130;8.244;2023-04-21T03:02:53;101844.06;;;5.90;64.95
10167;BME280;62970;53.130;8.244;2023-04-21T03:05:23;101840.59;;;5.89;64.72
10167;BME280;62970;53.130;8.244;2023-04-21T03:07:52;101846.63;;;5.88;64.94
10167;BME280;62970;53.130;8.244;2023-04-21T03:10:21;101845.75;;;5.88;65.08
10167;BME280;62970;53.130;8.244;2023-04-21T03:12:53;101840.56;;;5.86;64.61
10167;BME280;62970;53.130;8.244;2023-04-21T03:15:22;101848.31;;;5.86;65.03
10167;BME280;62970;53.130;8.244;2023-04-21T03:17:54;101837.09;;;5.86;64.71
10167;BME280;62970;53.130;8.244;2023-04-21T03:20:23;101847.47;;;5.87;65.05
10167;BME280;62970;53.130;8.244;2023-04-21T03:22:53;101844.00;;;5.85;64.90
10167;BME280;62970;53.130;8.244;2023-04-21T03:25:22;101857.81;;;5.86;65.16
10167;BME280;62970;53.130;8.244;2023-04-21T03:27:55;101850.91;;;5.85;64.74
10167;BME280;62970;53.130;8.244;2023-04-21T03:30:25;101860.41;;;5.86;64.76
10167;BME280;62970;53.130;8.244;2023-04-21T03:32:54;101850.91;;;5.85;64.81
10167;BME280;62970;53.130;8.244;2023-04-21T03:35:23;101843.13;;;5.85;65.06
10167;BME280;62970;53.130;8.244;2023-04-21T03:37:52;101848.31;;;5.85;64.79
10167;BME280;62970;53.130;8.244;2023-04-21T03:40:22;101849.16;;;5.84;65.06
10167;BME280;62970;53.130;8.244;2023-04-21T03:42:53;101856.91;;;5.84;65.00
10167;BME280;62970;53.130;8.244;2023-04-21T03:45:23;101862.13;;;5.85;65.27
10167;BME280;62970;53.130;8.244;2023-04-21T03:47:53;101847.44;;;5.84;64.88
10167;BME280;62970;53.130;8.244;2023-04-21T03:50:23;101859.50;;;5.84;64.75
10167;BME280;62970;53.130;8.244;2023-04-21T03:52:52;101852.59;;;5.83;64.79
10167;BME280;62970;53.130;8.244;2023-04-21T03:55:21;101854.31;;;5.82;65.17
10167;BME280;62970;53.130;8.244;2023-04-21T03:57:50;101856.00;;;5.80;65.25
10167;BME280;62970;53.130;8.244;2023-04-21T04:00:23;101854.25;;;5.78;65.00
10167;BME280;62970;53.130;8.244;2023-04-21T04:02:52;101856.84;;;5.78;64.87
10167;BME280;62970;53.130;8.244;2023-04-21T04:05:21;101855.09;;;5.77;65.09
10167;BME280;62970;53.130;8.244;2023-04-21T04:07:50;101852.50;;;5.75;65.24
10167;BME280;62970;53.130;8.244;2023-04-21T04:10:20;101861.09;;;5.74;65.32
10167;BME280;62970;53.130;8.244;2023-04-21T04:12:49;101861.09;;;5.73;65.27
10167;BME280;62970;53.130;8.244;2023-04-21T04:15:18;101863.66;;;5.71;64.91
10167;BME280;62970;53.130;8.244;2023-04-21T04:17:50;101854.13;;;5.68;64.93
10167;BME280;62970;53.130;8.244;2023-04-21T04:20:19;101860.16;;;5.67;65.06
10167;BME280;62970;53.130;8.244;2023-04-21T04:22:48;101869.63;;;5.67;65.29
10167;BME280;62970;53.130;8.244;2023-04-21T04:25:18;101859.28;;;5.67;65.12
10167;BME280;62970;53.130;8.244;2023-04-21T04:27:47;101870.53;;;5.69;65.49
10167;BME280;62970;53.130;8.244;2023-04-21T04:30:16;101861.91;;;5.68;64.98
10167;BME280;62970;53.130;8.244;2023-04-21T04:32:49;101862.75;;;5.69;65.47
10167;BME280;62970;53.130;8.244;2023-04-21T04:35:18;101862.78;;;5.70;65.37
10167;BME280;62970;53.130;8.244;2023-04-21T04:37:47;101861.94;;;5.72;65.29
10167;BME280;62970;53.130;8.244;2023-04-21T04:40:17;101857.63;;;5.72;65.13
10167;BME280;62970;53.130;8.244;2023-04-21T04:42:47;101863.69;;;5.74;65.40
10167;BME280;62970;53.130;8.244;2023-04-21T04:45:17;101857.66;;;5.75;65.30
10167;BME280;62970;53.130;8.244;2023-04-21T04:47:50;101861.16;;;5.77;64.97
10167;BME280;62970;53.130;8.244;2023-04-21T04:50:19;101853.41;;;5.79;64.99
10167;BME280;62970;53.130;8.244;2023-04-21T04:52:49;101867.25;;;5.82;65.07
10167;BME280;62970;53.130;8.244;2023-04-21T04:55:19;101864.72;;;5.85;65.29
10167;BME280;62970;53.130;8.244;2023-04-21T04:57:48;101867.34;;;5.88;65.41
10167;BME280;62970;53.130;8.244;2023-04-21T05:00:19;101857.03;;;5.91;65.29
10167;BME280;62970;53.130;8.244;2023-04-21T05:02:51;101867.41;;;5.94;64.90
10167;BME280;62970;53.130;8.244;2023-04-21T05:05:21;101864.03;;;6.00;65.21
10167;BME280;62970;53.130;8.244;2023-04-21T05:07:51;101865.00;;;6.10;64.98
10167;BME280;62970;53.130;8.244;2023-04-21T05:10:20;101861.84;;;6.33;65.53
10167;BME280;62970;53.130;8.244;2023-04-21T05:12:49;101866.56;;;6.73;65.47
10167;BME280;62970;53.130;8.244;2023-04-21T05:15:19;101859.13;;;7.15;64.80
10167;BME280;62970;53.130;8.244;2023-04-21T05:17:50;101868.16;;;7.58;64.22
10167;BME280;62970;53.130;8.244;2023-04-21T05:20:20;101864.03;;;8.02;63.31
10167;BME280;62970;53.130;8.244;2023-04-21T05:22:50;101863.31;;;8.41;63.07
10167;BME280;62970;53.130;8.244;2023-04-21T05:25:19;101853.84;;;8.76;62.42
10167;BME280;62970;53.130;8.244;2023-04-21T05:27:48;101860.81;;;9.09;61.94
10167;BME280;62970;53.130;8.244;2023-04-21T05:30:18;101856.44;;;9.45;61.06
10167;BME280;62970;53.130;8.244;2023-04-21T05:32:50;101857.22;;;9.77;60.77
10167;BME280;62970;53.130;8.244;2023-04-21T05:35:19;101855.38;;;10.08;60.54
10167;BME280;62970;53.130;8.244;2023-04-21T05:37:49;101857.84;;;10.45;59.47
10167;BME280;62970;53.130;8.244;2023-04-21T05:40:19;101858.50;;;10.74;59.53
10167;BME280;62970;53.130;8.244;2023-04-21T05:42:49;101848.72;;;11.02;58.46
10167;BME280;62970;53.130;8.244;2023-04-21T05:45:18;101857.19;;;11.29;58.47
10167;BME280;62970;53.130;8.244;2023-04-21T05:47:50;101855.25;;;11.52;58.06
10167;BME280;62970;53.130;8.244;2023-04-21T05:50:20;101858.41;;;11.80;57.51
10167;BME280;62970;53.130;8.244;2023-04-21T05:52:51;101855.41;;;12.12;57.68
10167;BME280;62970;53.130;8.244;2023-04-21T05:55:21;101861.13;;;12.40;56.96
10167;BME280;62970;53.130;8.244;2023-04-21T05:57:51;101857.34;;;12.64;56.24
10167;BME280;62970;53.130;8.244;2023-04-21T06:00:20;101852.59;;;12.89;56.32
10167;BME280;62970;53.130;8.244;2023-04-21T06:02:51;101847.81;;;13.14;55.44
10167;BME280;62970;53.130;8.244;2023-04-21T06:05:21;101845.56;;;13.42;54.85
10167;BME280;62970;53.130;8.244;2023-04-21T06:07:50;101844.22;;;13.68;54.67
10167;BME280;62970;53.130;8.244;2023-04-21T06:10:20;101838.44;;;13.94;54.66
10167;BME280;62970;53.130;8.244;2023-04-21T06:12:49;101834.44;;;14.18;53.69
10167;BME280;62970;53.130;8.244;2023-04-21T06:15:18;101837.47;;;14.39;53.49
10167;BME280;62970;53.130;8.244;2023-04-21T06:17:55;101830.97;;;14.55;53.43
10167;BME280;62970;53.130;8.244;2023-04-21T06:20:24;101836.59;;;14.77;53.04
10167;BME280;62970;53.130;8.244;2023-04-21T06:22:53;101830.00;;;14.96;52.45
10167;BME280;62970;53.130;8.244;2023-04-21T06:25:23;101832.94;;;15.18;52.18
10167;BME280;62970;53.130;8.244;2023-04-21T06:27:52;101822.09;;;15.31;51.43
10167;BME280;62970;53.130;8.244;2023-04-21T06:30:21;101830.50;;;15.44;50.81
10167;BME280;62970;53.130;8.244;2023-04-21T06:32:54;101830.16;;;15.56;50.38
10167;BME280;62970;53.130;8.244;2023-04-21T06:35:23;101825.50;;;15.68;50.36
10167;BME280;62970;53.130;8.244;2023-04-21T06:37:52;101825.97;;;15.82;50.05
10167;BME280;62970;53.130;8.244;2023-04-21T06:40:22;101827.28;;;15.97;50.21
10167;BME280;62970;53.130;8.244;2023-04-21T06:42:51;101818.06;;;16.11;49.83
10167;BME280;62970;53.130;8.244;2023-04-21T06:45:21;101818.41;;;16.28;49.69
10167;BME280;62970;53.130;8.244;2023-04-21T06:47:50;101815.31;;;16.44;49.16
10167;BME280;62970;53.130;8.244;2023-04-21T06:50:22;101812.13;;;16.62;48.73
10167;BME280;62970;53.130;8.244;2023-04-21T06:52:51;101806.50;;;16.73;47.87
10167;BME280;62970;53.130;8.244;2023-04-21T06:55:20;101813.44;;;16.75;47.30
10167;BME280;62970;53.130;8.244;2023-04-21T06:57:49;101810.72;;;16.78;47.90
10167;BME280;62970;53.130;8.244;2023-04-21T07:00:19;101806.69;;;16.93;47.72
10167;BME280;62970;53.130;8.244;2023-04-21T07:02:48;101802.34;;;17.17;47.80
10167;BME280;62970;53.130;8.244;2023-04-21T07:05:17;101791.03;;;17.40;47.12
10167;BME280;62970;53.130;8.244;2023-04-21T07:07:49;101792.41;;;17.50;46.62
10167;BME280;62970;53.130;8.244;2023-04-21T07:10:19;101785.72;;;17.65;46.18
10167;BME280;62970;53.130;8.244;2023-04-21T07:12:49;101788.69;;;17.80;46.67
10167;BME280;62970;53.130;8.244;2023-04-21T07:15:18;101777.19;;;18.05;46.03
10167;BME280;62970;53.130;8.244;2023-04-21T07:17:47;101771.22;;;18.23;46.24
10167;BME280;62970;53.130;8.244;2023-04-21T07:20:16;101776.84;;;18.36;45.78
10167;BME280;62970;53.130;8.244;2023-04-21T07:22:48;101779.91;;;18.47;44.09
10167;BME280;62970;53.130;8.244;2023-04-21T07:25:18;101766.66;;;18.48;44.85
10167;BME280;62970;53.130;8.244;2023-04-21T07:27:50;101766.34;;;18.56;44.41
10167;BME280;62970;53.130;8.244;2023-04-21T07:30:19;101764.22;;;18.64;44.59
10167;BME280;62970;53.130;8.244;2023-04-21T07:32:48;101769.72;;;18.80;44.55
10167;BME280;62970;53.130;8.244;2023-04-21T07:35:18;101764.28;;;19.05;44.22
10167;BME280;62970;53.130;8.244;2023-04-21T07:37:50;101767.25;;;19.18;44.00
10167;BME280;62970;53.130;8.244;2023-04-21T07:40:19;101765.06;;;19.27;43.75
10167;BME280;62970;53.130;8.244;2023-04-21T07:42:48;101768.16;;;19.37;43.47
10167;BME280;62970;53.130;8.244;2023-04-21T07:45:17;101763.09;;;19.51;43.12
10167;BME280;62970;53.130;8.244;2023-04-21T07:47:47;101773.19;;;19.62;42.87
10167;BME280;62970;53.130;8.244;2023-04-21T07:50:17;101779.63;;;19.75;42.60
10167;BME280;62970;53.130;8.244;2023-04-21T07:52:49;101777.88;;;19.94;42.56
10167;BME280;62970;53.130;8.244;2023-04-21T07:55:18;101773.84;;;20.04;42.40
10167;BME280;62970;53.130;8.244;2023-04-21T07:57:47;101771.00;;;20.09;42.00
10167;BME280;62970;53.130;8.244;2023-04-21T08:00:17;101771.19;;;20.23;41.88
10167;BME280;62970;53.130;8.244;2023-04-21T08:02:47;101766.22;;;20.34;41.34
10167;BME280;62970;53.130;8.244;2023-04-21T08:05:16;101765.97;;;20.40;40.42
10167;BME280;62970;53.130;8.244;2023-04-21T08:07:45;101766.22;;;20.34;39.91
10167;BME280;62970;53.130;8.244;2023-04-21T08:10:17;101755.13;;;20.09;39.92
10167;BME280;62970;53.130;8.244;2023-04-21T08:12:46;101765.53;;;19.74;39.38
10167;BME280;62970;53.130;8.244;2023-04-21T08:15:15;101755.34;;;19.28;40.02
10167;BME280;62970;53.130;8.244;2023-04-21T08:17:45;101768.28;;;18.73;40.15
10167;BME280;62970;53.130;8.244;2023-04-21T08:20:14;101755.75;;;18.12;40.67
10167;BME280;62970;53.130;8.244;2023-04-21T08:22:43;101750.28;;;17.48;40.88
10167;BME280;62970;53.130;8.244;2023-04-21T08:25:12;101758.47;;;16.91;41.80
10167;BME280;62970;53.130;8.244;2023-04-21T08:27:44;101764.50;;;16.42;42.10
10167;BME280;62970;53.130;8.244;2023-04-21T08:30:14;101754.41;;;16.00;42.90
10167;BME280;62970;53.130;8.244;2023-04-21T08:32:44;101751.81;;;15.71;43.31
10167;BME280;62970;53.130;8.244;2023-04-21T08:35:13;101753.31;;;15.48;43.76
10167;BME280;62970;53.130;8.244;2023-04-21T08:37:42;101758.25;;;15.28;44.59
10167;BME280;62970;53.130;8.244;2023-04-21T08:40:12;101759.59;;;15.10;44.57
10167;BME280;62970;53.130;8.244;2023-04-21T08:42:44;101753.88;;;14.94;45.23
10167;BME280;62970;53.130;8.244;2023-04-21T08:45:14;101747.16;;;14.84;45.14
10167;BME280;62970;53.130;8.244;2023-04-21T08:47:43;101750.91;;;14.74;45.46
10167;BME280;62970;53.130;8.244;2023-04-21T08:50:13;101752.81;;;14.67;45.22
10167;BME280;62970;53.130;8.244;2023-04-21T08:52:42;101753.00;;;14.60;45.19
10167;BME280;62970;53.130;8.244;2023-04-21T08:55:12;101755.75;;;14.54;45.52
10167;BME280;62970;53.130;8.244;2023-04-21T08:57:46;101745.47;;;14.46;46.05
10167;BME280;62970;53.130;8.244;2023-04-21T09:00:16;101752.53;;;14.43;46.01
10167;BME280;62970;53.130;8.244;2023-04-21T09:02:53;101752.63;;;14.40;45.79
10167;BME280;62970;53.130;8.244;2023-04-21T09:05:25;101750.88;;;14.39;45.86
10167;BME280;62970;53.130;8.244;2023-04-21T09:08:08;101744.81;;;14.36;46.01
10167;BME280;62970;53.130;8.244;2023-04-21T09:10:44;101743.91;;;14.38;46.73
10167;BME280;62970;53.130;8.244;2023-04-21T09:13:17;101742.09;;;14.41;46.40
10167;BME280;62970;53.130;8.244;2023-04-21T09:15:50;101740.25;;;14.45;46.63
10167;BME280;62970;53.130;8.244;2023-04-21T09:18:22;101749.81;;;14.47;46.28
10167;BME280;62970;53.130;8.244;2023-04-21T09:21:04;101742.84;;;14.46;46.39
10167;BME280;62970;53.130;8.244;2023-04-21T09:23:47;101744.59;;;14.46;46.14
10167;BME280;62970;53.130;8.244;2023-04-21T09:26:19;101739.31;;;14.47;46.65
10167;BME280;62970;53.130;8.244;2023-04-21T09:28:52;101728.78;;;14.49;46.36
10167;BME280;62970;53.130;8.244;2023-04-21T09:31:23;101739.13;;;14.55;46.77
10167;BME280;62970;53.130;8.244;2023-04-21T09:33:56;101731.16;;;14.58;46.55
10167;BME280;62970;53.130;8.244;2023-04-21T09:36:28;101733.69;;;14.62;46.11
10167;BME280;62970;53.130;8.244;2023-04-21T09:39:00;101735.41;;;14.63;46.07
10167;BME280;62970;53.130;8.244;2023-04-21T09:41:30;101729.25;;;14.64;46.67
10167;BME280;62970;53.130;8.244;2023-04-21T09:44:04;101728.34;;;14.67;46.80
10167;BME280;62970;53.130;8.244;2023-04-21T09:46:35;101724.69;;;14.73;46.64
10167;BME280;62970;53.130;8.244;2023-04-21T09:49:04;101714.06;;;14.77;46.43
10167;BME280;62970;53.130;8.244;2023-04-21T09:51:35;101720.84;;;14.86;46.82
10167;BME280;62970;53.130;8.244;2023-04-21T09:54:11;101710.97;;;14.95;45.74
10167;BME280;62970;53.130;8.244;2023-04-21T09:56:44;101709.94;;;15.01;45.88
10167;BME280;62970;53.130;8.244;2023-04-21T09:59:27;101688.78;;;15.06;45.71
10167;BME280;62970;53.130;8.244;2023-04-21T10:01:58;101689.53;;;15.11;45.59
10167;BME280;62970;53.130;8.244;2023-04-21T10:04:30;101690.22;;;15.17;45.86
10167;BME280;62970;53.130;8.244;2023-04-21T10:07:02;101687.41;;;15.25;45.67
10167;BME280;62970;53.130;8.244;2023-04-21T10:09:37;101692.50;;;15.31;45.17
10167;BME280;62970;53.130;8.244;2023-04-21T10:12:09;101694.06;;;15.37;45.01
10167;BME280;62970;53.130;8.244;2023-04-21T10:14:41;101692.13;;;15.43;45.43
10167;BME280;62970;53.130;8.244;2023-04-21T10:17:11;101683.16;;;15.50;44.84
10167;BME280;62970;53.130;8.244;2023-04-21T10:19:49;101685.59;;;15.56;44.02
10167;BME280;62970;53.130;8.244;2023-04-21T10:22:33;101665.31;;;15.61;44.29
10167;BME280;62970;53.130;8.244;2023-04-21T10:25:08;101684.34;;;15.70;44.50
10167;BME280;62970;53.130;8.244;2023-04-21T10:27:40;101671.03;;;15.76;44.20
10167;BME280;62970;53.130;8.244;2023-04-21T10:30:23;101668.19;;;15.82;43.89
10167;BME280;62970;53.130;8.244;2023-04-21T10:33:02;101668.88;;;15.88;43.13
10167;BME280;62970;53.130;8.244;2023-04-21T10:36:00;101662.59;;;15.92;43.55
10167;BME280;62970;53.130;8.244;2023-04-21T10:38:33;101654.56;;;15.97;43.71
10167;BME280;62970;53.130;8.244;2023-04-21T10:41:27;101658.75;;;16.03;42.94
10167;BME280;62970;53.130;8.244;2023-04-21T10:43:58;101652.44;;;16.08;43.15
10167;BME280;62970;53.130;8.244;2023-04-21T10:46:38;101641.72;;;16.14;42.66
10167;BME280;62970;53.130;8.244;2023-04-21T10:49:09;101634.53;;;16.19;43.54
10167;BME280;62970;53.130;8.244;2023-04-21T10:52:05;101630.78;;;16.26;43.51
10167;BME280;62970;53.130;8.244;2023-04-21T10:54:41;101639.28;;;16.35;42.22
10167;BME280;62970;53.130;8.244;2023-04-21T10:57:13;101624.19;;;16.40;42.17
10167;BME280;62970;53.130;8.244;2023-04-21T10:59:43;101624.91;;;16.45;41.34
10167;BME280;62970;53.130;8.244;2023-04-21T11:02:18;101614.06;;;16.54;40.79
10167;BME280;62970;53.130;8.244;2023-04-21T11:04:50;101621.66;;;16.63;41.41
10167;BME280;62970;53.130;8.244;2023-04-21T11:07:23;101623.03;;;16.73;41.37
10167;BME280;62970;53.130;8.244;2023-04-21T11:09:57;101609.53;;;16.82;41.29
10167;BME280;62970;53.130;8.244;2023-04-21T11:12:29;101621.41;;;16.94;41.19
10167;BME280;62970;53.130;8.244;2023-04-21T11:15:02;101608.91;;;16.99;40.12
10167;BME280;62970;53.130;8.244;2023-04-21T11:17:35;101606.06;;;17.05;38.93
10167;BME280;62970;53.130;8.244;2023-04-21T11:20:09;101602.38;;;17.09;38.79
10167;BME280;62970;53.130;8.244;2023-04-21T11:22:40;101596.88;;;17.15;38.35
10167;BME280;62970;53.130;8.244;2023-04-21T11:25:16;101600.19;;;17.20;38.29
10167;BME280;62970;53.130;8.244;2023-04-21T11:27:53;101599.03;;;17.28;37.17
10167;BME280;62970;53.130;8.244;2023-04-21T11:30:30;101583.78;;;17.36;37.67
10167;BME280;62970;53.130;8.244;2023-04-21T11:33:03;101578.31;;;17.42;35.56
10167;BME280;62970;53.130;8.244;2023-04-21T11:35:33;101573.53;;;17.51;37.57
10167;BME280;62970;53.130;8.244;2023-04-21T11:38:04;101563.53;;;17.60;37.04
10167;BME280;62970;53.130;8.244;2023-04-21T11:40:48;101587.16;;;17.63;34.36
10167;BME280;62970;53.130;8.244;2023-04-21T11:43:20;101562.25;;;17.70;36.92
10167;BME280;62970;53.130;8.244;2023-04-21T11:45:50;101578.88;;;17.72;36.09
10167;BME280;62970;53.130;8.244;2023-04-21T11:48:23;101576.34;;;17.69;35.58
10167;BME280;62970;53.130;8.244;2023-04-21T11:51:00;101570.22;;;17.68;35.31
10167;BME280;62970;53.130;8.244;2023-04-21T11:53:29;101565.81;;;17.69;35.62
10167;BME280;62970;53.130;8.244;2023-04-21T11:55:58;101546.44;;;17.70;35.02
10167;BME280;62970;53.130;8.244;2023-04-21T11:58:27;101532.84;;;17.79;35.08
10167;BME280;62970;53.130;8.244;2023-04-21T12:00:56;101549.25;;;17.87;35.66
10167;BME280;62970;53.130;8.244;2023-04-21T12:03:28;101527.81;;;17.95;35.16
10167;BME280;62970;53.130;8.244;2023-04-21T12:05:57;101522.34;;;17.99;35.12
10167;BME280;62970;53.130;8.244;2023-04-21T12:08:28;101538.13;;;18.01;34.87
10167;BME280;62970;53.130;8.244;2023-04-21T12:10:59;101549.66;;;17.98;34.29
10167;BME280;62970;53.130;8.244;2023-04-21T12:13:30;101525.31;;;17.92;33.87
10167;BME280;62970;53.130;8.244;2023-04-21T12:16:02;101529.13;;;17.84;34.47
10167;BME280;62970;53.130;8.244;2023-04-21T12:18:35;101520.53;;;17.79;34.50
10167;BME280;62970;53.130;8.244;2023-04-21T12:21:05;101516.06;;;17.81;35.21
10167;BME280;62970;53.130;8.244;2023-04-21T12:23:34;101502.56;;;17.89;34.02
10167;BME280;62970;53.130;8.244;2023-04-21T12:26:04;101494.25;;;17.98;34.46
10167;BME280;62970;53.130;8.244;2023-04-21T12:28:33;101501.72;;;18.09;33.85
10167;BME280;62970;53.130;8.244;2023-04-21T12:31:02;101503.16;;;18.16;34.00
10167;BME280;62970;53.130;8.244;2023-04-21T12:33:35;101509.16;;;18.19;34.31
10167;BME280;62970;53.130;8.244;2023-04-21T12:36:05;101500.06;;;18.27;33.63
10167;BME280;62970;53.130;8.244;2023-04-21T12:38:34;101496.09;;;18.37;33.58
10167;BME280;62970;53.130;8.244;2023-04-21T12:41:04;101498.31;;;18.46;33.46
10167;BME280;62970;53.130;8.244;2023-04-21T12:43:34;101485.56;;;18.56;33.16
10167;BME280;62970;53.130;8.244;2023-04-21T12:46:03;101488.63;;;18.65;33.46
10167;BME280;62970;53.130;8.244;2023-04-21T12:48:36;101478.56;;;18.73;32.09
10167;BME280;62970;53.130;8.244;2023-04-21T12:51:06;101486.22;;;18.79;32.01
10167;BME280;62970;53.130;8.244;2023-04-21T12:53:35;101486.94;;;18.83;32.12
10167;BME280;62970;53.130;8.244;2023-04-21T12:56:05;101473.66;;;18.85;32.33
10167;BME280;62970;53.130;8.244;2023-04-21T12:58:34;101469.16;;;18.87;32.08
10167;BME280;62970;53.130;8.244;2023-04-21T13:01:05;101465.56;;;18.88;32.06
10167;BME280;62970;53.130;8.244;2023-04-21T13:03:36;101466.44;;;18.88;31.90
10167;BME280;62970;53.130;8.244;2023-04-21T13:06:07;101462.84;;;18.89;31.77
10167;BME280;62970;53.130;8.244;2023-04-21T13:08:38;101464.56;;;18.90;31.66
10167;BME280;62970;53.130;8.244;2023-04-21T13:11:07;101475.06;;;18.92;31.16
10167;BME280;62970;53.130;8.244;2023-04-21T13:13:36;101461.84;;;18.92;30.94